sensor_id;sensor_type;location;lat;lon;timestamp;P1;durP1;ratioP1;P2;durP2;ratioP2
1174;SDS011;576;48.418;10.074;2022-08-19T00:01:52;14.67;;;13.47;;
1174;SDS011;576;48.418;10.074;2022-08-19T00:04:23;15.50;;;14.20;;
1174;SDS011;576;48.418;10.074;2022-08-19T00:06:55;17.73;;;16.20;;
1174;SDS011;576;48.418;10.074;2022-08-19T00:09:24;18.90;;;17.13;;
1174;SDS011;576;48.418;10.074;2022-08-19T00:11:54;16.63;;;14.97;;
1174;SDS011;576;48.418;10.074;2022-08-19T00:14:23;18.03;;;16.37;;
1174;SDS011;576;48.418;10.074;2022-08-19T00:16:52;11.27;;;10.23;;
1174;SDS011;576;48.418;10.074;2022-08-19T00:19:21;16.00;;;14.60;;
1174;SDS011;576;48.418;10.074;2022-08-19T00:21:51;12.10;;;11.00;;
1174;SDS011;576;48.418;10.074;2022-08-19T00:24:21;9.17;;;8.47;;
1174;SDS011;576;48.418;10.074;2022-08-19T00:26:51;9.63;;;8.93;;
1174;SDS011;576;48.418;10.074;2022-08-19T00:29:20;11.17;;;10.27;;
1174;SDS011;576;48.418;10.074;2022-08-19T00:31:50;9.47;;;8.80;;
1174;SDS011;576;48.418;10.074;2022-08-19T00:34:22;12.17;;;11.10;;
1174;SDS011;576;48.418;10.074;2022-08-19T00:36:51;13.47;;;12.13;;
1174;SDS011;576;48.418;10.074;2022-08-19T00:39:20;12.97;;;11.97;;
1174;SDS011;576;48.418;10.074;2022-08-19T00:41:50;11.67;;;10.70;;
1174;SDS011;576;48.418;10.074;2022-08-19T00:44:19;10.60;;;9.80;;
1174;SDS011;576;48.418;10.074;2022-08-19T00:46:53;11.73;;;10.80;;
1174;SDS011;576;48.418;10.074;2022-08-19T00:49:27;16.53;;;15.20;;
1174;SDS011;576;48.418;10.074;2022-08-19T00:52:00;10.67;;;9.87;;
1174;SDS011;576;48.418;10.074;2022-08-19T00:54:33;11.00;;;10.17;;
1174;SDS011;576;48.418;10.074;2022-08-19T00:57:03;16.27;;;14.67;;
1174;SDS011;576;48.418;10.074;2022-08-19T00:59:34;15.43;;;14.03;;
1174;SDS011;576;48.418;10.074;2022-08-19T01:02:24;17.80;;;16.27;;
1174;SDS011;576;48.418;10.074;2022-08-19T01:04:54;12.30;;;11.20;;
1174;SDS011;576;48.418;10.074;2022-08-19T01:07:22;19.43;;;17.83;;
1174;SDS011;576;48.418;10.074;2022-08-19T01:09:52;22.07;;;19.77;;
1174;SDS011;576;48.418;10.074;2022-08-19T01:12:21;17.23;;;15.77;;
1174;SDS011;576;48.418;10.074;2022-08-19T01:14:50;22.00;;;20.10;;
1174;SDS011;576;48.418;10.074;2022-08-19T01:17:21;18.40;;;16.90;;
1174;SDS011;576;48.418;10.074;2022-08-19T01:19:49;13.53;;;12.50;;
1174;SDS011;576;48.418;10.074;2022-08-19T01:22:19;15.10;;;13.80;;
1174;SDS011;576;48.418;10.074;2022-08-19T01:24:59;13.57;;;12.10;;
1174;SDS011;576;48.418;10.074;2022-08-19T01:27:36;12.27;;;11.27;;
1174;SDS011;576;48.418;10.074;2022-08-19T01:30:09;17.53;;;15.90;;
1174;SDS011;576;48.418;10.074;2022-08-19T01:32:39;14.27;;;12.97;;
1174;SDS011;576;48.418;10.074;2022-08-19T01:35:07;14.60;;;13.20;;
1174;SDS011;576;48.418;10.074;2022-08-19T01:37:48;9.93;;;9.23;;
1174;SDS011;576;48.418;10.074;2022-08-19T01:40:19;10.37;;;9.47;;
1174;SDS011;576;48.418;10.074;2022-08-19T01:42:50;17.80;;;16.20;;
1174;SDS011;576;48.418;10.074;2022-08-19T01:45:19;10.33;;;9.63;;
1174;SDS011;576;48.418;10.074;2022-08-19T01:47:49;16.63;;;15.13;;
1174;SDS011;576;48.418;10.074;2022-08-19T01:50:28;15.40;;;14.00;;
1174;SDS011;576;48.418;10.074;2022-08-19T01:52:58;15.20;;;13.80;;
1174;SDS011;576;48.418;10.074;2022-08-19T01:55:32;11.30;;;10.40;;
1174;SDS011;576;48.418;10.074;2022-08-19T01:58:08;18.83;;;17.17;;
1174;SDS011;576;48.418;10.074;2022-08-19T02:00:39;13.03;;;11.97;;
1174;SDS011;576;48.418;10.074;2022-08-19T02:03:08;20.37;;;18.30;;
1174;SDS011;576;48.418;10.074;2022-08-19T02:05:38;11.23;;;10.33;;
1174;SDS011;576;48.418;10.074;2022-08-19T02:08:09;16.93;;;15.50;;
1174;SDS011;576;48.418;10.074;2022-08-19T02:10:38;15.97;;;14.70;;
1174;SDS011;576;48.418;10.074;2022-08-19T02:13:08;12.30;;;11.33;;
1174;SDS011;576;48.418;10.074;2022-08-19T02:15:37;13.07;;;12.00;;
1174;SDS011;576;48.418;10.074;2022-08-19T02:18:06;17.53;;;16.00;;
1174;SDS011;576;48.418;10.074;2022-08-19T02:20:34;16.50;;;15.10;;
1174;SDS011;576;48.418;10.074;2022-08-19T02:23:04;11.73;;;10.73;;
1174;SDS011;576;48.418;10.074;2022-08-19T02:25:44;18.33;;;16.73;;
1174;SDS011;576;48.418;10.074;2022-08-19T02:28:14;13.20;;;12.10;;
1174;SDS011;576;48.418;10.074;2022-08-19T02:30:44;13.67;;;12.57;;
1174;SDS011;576;48.418;10.074;2022-08-19T02:33:15;12.30;;;11.30;;
1174;SDS011;576;48.418;10.074;2022-08-19T02:35:44;12.50;;;11.60;;
1174;SDS011;576;48.418;10.074;2022-08-19T02:38:13;11.83;;;10.90;;
1174;SDS011;576;48.418;10.074;2022-08-19T02:40:56;11.50;;;10.70;;
1174;SDS011;576;48.418;10.074;2022-08-19T02:43:26;14.17;;;12.97;;
1174;SDS011;576;48.418;10.074;2022-08-19T02:45:59;16.67;;;15.30;;
1174;SDS011;576;48.418;10.074;2022-08-19T02:48:36;13.33;;;12.00;;
1174;SDS011;576;48.418;10.074;2022-08-19T02:51:07;13.67;;;12.53;;
1174;SDS011;576;48.418;10.074;2022-08-19T02:53:35;17.50;;;15.97;;
1174;SDS011;576;48.418;10.074;2022-08-19T02:56:10;11.70;;;10.90;;
1174;SDS011;576;48.418;10.074;2022-08-19T02:58:38;14.17;;;13.07;;
1174;SDS011;576;48.418;10.074;2022-08-19T03:01:11;16.20;;;14.80;;
1174;SDS011;576;48.418;10.074;2022-08-19T03:03:46;14.80;;;13.70;;
1174;SDS011;576;48.418;10.074;2022-08-19T03:06:15;13.80;;;12.70;;
1174;SDS011;576;48.418;10.074;2022-08-19T03:08:45;21.40;;;19.50;;
1174;SDS011;576;48.418;10.074;2022-08-19T03:11:16;11.40;;;10.40;;
1174;SDS011;576;48.418;10.074;2022-08-19T03:13:46;23.17;;;21.07;;
1174;SDS011;576;48.418;10.074;2022-08-19T03:16:17;14.30;;;13.07;;
1174;SDS011;576;48.418;10.074;2022-08-19T03:18:46;11.73;;;10.83;;
1174;SDS011;576;48.418;10.074;2022-08-19T03:21:15;15.00;;;13.60;;
1174;SDS011;576;48.418;10.074;2022-08-19T03:23:44;13.40;;;12.30;;
1174;SDS011;576;48.418;10.074;2022-08-19T03:26:13;12.00;;;11.10;;
1174;SDS011;576;48.418;10.074;2022-08-19T03:28:44;18.00;;;16.43;;
1174;SDS011;576;48.418;10.074;2022-08-19T03:31:24;20.40;;;18.47;;
1174;SDS011;576;48.418;10.074;2022-08-19T03:34:14;16.13;;;14.70;;
1174;SDS011;576;48.418;10.074;2022-08-19T03:36:44;21.77;;;19.80;;
1174;SDS011;576;48.418;10.074;2022-08-19T03:39:14;19.13;;;17.53;;
1174;SDS011;576;48.418;10.074;2022-08-19T03:41:44;22.47;;;20.37;;
1174;SDS011;576;48.418;10.074;2022-08-19T03:44:16;12.93;;;11.60;;
1174;SDS011;576;48.418;10.074;2022-08-19T03:46:47;22.93;;;20.83;;
1174;SDS011;576;48.418;10.074;2022-08-19T03:49:17;12.10;;;11.10;;
1174;SDS011;576;48.418;10.074;2022-08-19T03:51:46;13.03;;;12.00;;
1174;SDS011;576;48.418;10.074;2022-08-19T03:54:17;16.40;;;14.93;;
1174;SDS011;576;48.418;10.074;2022-08-19T03:56:48;14.67;;;13.50;;
1174;SDS011;576;48.418;10.074;2022-08-19T03:59:19;20.67;;;18.77;;
1174;SDS011;576;48.418;10.074;2022-08-19T04:01:53;12.40;;;11.30;;
1174;SDS011;576;48.418;10.074;2022-08-19T04:04:21;14.00;;;12.90;;
1174;SDS011;576;48.418;10.074;2022-08-19T04:06:54;17.53;;;16.00;;
1174;SDS011;576;48.418;10.074;2022-08-19T04:09:23;22.50;;;20.40;;
1174;SDS011;576;48.418;10.074;2022-08-19T04:11:53;19.00;;;17.27;;
1174;SDS011;576;48.418;10.074;2022-08-19T04:14:24;12.77;;;11.83;;
1174;SDS011;576;48.418;10.074;2022-08-19T04:16:55;16.60;;;15.00;;
1174;SDS011;576;48.418;10.074;2022-08-19T04:19:24;21.37;;;19.30;;
1174;SDS011;576;48.418;10.074;2022-08-19T04:21:54;18.90;;;17.10;;
1174;SDS011;576;48.418;10.074;2022-08-19T04:24:22;12.67;;;11.67;;
1174;SDS011;576;48.418;10.074;2022-08-19T04:26:51;24.03;;;21.60;;
1174;SDS011;576;48.418;10.074;2022-08-19T04:29:20;15.40;;;14.17;;
1174;SDS011;576;48.418;10.074;2022-08-19T04:31:53;23.13;;;20.83;;
1174;SDS011;576;48.418;10.074;2022-08-19T04:34:25;18.60;;;16.93;;
1174;SDS011;576;48.418;10.074;2022-08-19T04:36:55;16.20;;;14.70;;
1174;SDS011;576;48.418;10.074;2022-08-19T04:39:26;12.30;;;11.40;;
1174;SDS011;576;48.418;10.074;2022-08-19T04:42:09;12.80;;;11.60;;
1174;SDS011;576;48.418;10.074;2022-08-19T04:44:56;13.80;;;12.70;;
1174;SDS011;576;48.418;10.074;2022-08-19T04:47:26;21.53;;;19.43;;
1174;SDS011;576;48.418;10.074;2022-08-19T04:50:14;12.80;;;11.70;;
1174;SDS011;576;48.418;10.074;2022-08-19T04:52:44;13.47;;;12.40;;
1174;SDS011;576;48.418;10.074;2022-08-19T04:55:12;14.90;;;13.50;;
1174;SDS011;576;48.418;10.074;2022-08-19T04:57:41;13.23;;;12.03;;
1174;SDS011;576;48.418;10.074;2022-08-19T05:00:09;14.07;;;12.93;;
1174;SDS011;576;48.418;10.074;2022-08-19T05:02:39;14.47;;;13.37;;
1174;SDS011;576;48.418;10.074;2022-08-19T05:05:08;19.57;;;17.87;;
1174;SDS011;576;48.418;10.074;2022-08-19T05:07:36;12.30;;;11.20;;
1174;SDS011;576;48.418;10.074;2022-08-19T05:10:06;11.50;;;10.60;;
1174;SDS011;576;48.418;10.074;2022-08-19T05:12:35;14.03;;;12.60;;
1174;SDS011;576;48.418;10.074;2022-08-19T05:15:04;12.67;;;11.60;;
1174;SDS011;576;48.418;10.074;2022-08-19T05:17:34;12.67;;;11.73;;
1174;SDS011;576;48.418;10.074;2022-08-19T05:20:06;14.93;;;13.53;;
1174;SDS011;576;48.418;10.074;2022-08-19T05:22:53;21.90;;;20.00;;
1174;SDS011;576;48.418;10.074;2022-08-19T05:25:22;13.20;;;12.00;;
1174;SDS011;576;48.418;10.074;2022-08-19T05:27:50;15.20;;;13.80;;
1174;SDS011;576;48.418;10.074;2022-08-19T05:30:19;15.93;;;14.60;;
1174;SDS011;576;48.418;10.074;2022-08-19T05:33:10;23.27;;;21.00;;
1174;SDS011;576;48.418;10.074;2022-08-19T05:35:40;23.70;;;21.37;;
1174;SDS011;576;48.418;10.074;2022-08-19T05:38:08;24.47;;;22.07;;
1174;SDS011;576;48.418;10.074;2022-08-19T05:40:37;23.07;;;20.57;;
1174;SDS011;576;48.418;10.074;2022-08-19T05:43:06;25.33;;;22.77;;
1174;SDS011;576;48.418;10.074;2022-08-19T05:45:37;25.40;;;22.90;;
1174;SDS011;576;48.418;10.074;2022-08-19T05:48:08;24.27;;;21.80;;
1174;SDS011;576;48.418;10.074;2022-08-19T05:50:37;27.80;;;24.87;;
1174;SDS011;576;48.418;10.074;2022-08-19T05:53:08;28.07;;;25.23;;
1174;SDS011;576;48.418;10.074;2022-08-19T05:55:36;26.13;;;22.60;;
1174;SDS011;576;48.418;10.074;2022-08-19T05:58:06;13.80;;;12.70;;
1174;SDS011;576;48.418;10.074;2022-08-19T06:00:34;21.57;;;19.67;;
1174;SDS011;576;48.418;10.074;2022-08-19T06:03:02;13.87;;;12.63;;
1174;SDS011;576;48.418;10.074;2022-08-19T06:05:39;14.80;;;13.50;;
1174;SDS011;576;48.418;10.074;2022-08-19T06:08:17;13.80;;;12.40;;
1174;SDS011;576;48.418;10.074;2022-08-19T06:11:11;12.97;;;11.90;;
1174;SDS011;576;48.418;10.074;2022-08-19T06:13:45;12.50;;;11.43;;
1174;SDS011;576;48.418;10.074;2022-08-19T06:16:25;13.00;;;11.90;;
1174;SDS011;576;48.418;10.074;2022-08-19T06:18:54;19.17;;;17.00;;
1174;SDS011;576;48.418;10.074;2022-08-19T06:21:26;16.03;;;14.47;;
1174;SDS011;576;48.418;10.074;2022-08-19T06:23:55;21.93;;;19.63;;
1174;SDS011;576;48.418;10.074;2022-08-19T06:26:25;15.83;;;14.20;;
1174;SDS011;576;48.418;10.074;2022-08-19T06:28:54;13.40;;;12.13;;
1174;SDS011;576;48.418;10.074;2022-08-19T06:31:23;13.50;;;12.30;;
1174;SDS011;576;48.418;10.074;2022-08-19T06:33:53;14.77;;;13.13;;
1174;SDS011;576;48.418;10.074;2022-08-19T06:36:22;14.97;;;13.57;;
1174;SDS011;576;48.418;10.074;2022-08-19T06:38:59;22.23;;;19.97;;
1174;SDS011;576;48.418;10.074;2022-08-19T06:41:29;17.57;;;15.80;;
1174;SDS011;576;48.418;10.074;2022-08-19T06:43:58;15.50;;;13.87;;
1174;SDS011;576;48.418;10.074;2022-08-19T06:46:26;13.80;;;12.60;;
1174;SDS011;576;48.418;10.074;2022-08-19T06:48:58;14.90;;;13.40;;
1174;SDS011;576;48.418;10.074;2022-08-19T06:51:27;12.90;;;11.67;;
1174;SDS011;576;48.418;10.074;2022-08-19T06:53:58;20.70;;;18.60;;
1174;SDS011;576;48.418;10.074;2022-08-19T06:56:28;14.67;;;13.00;;
1174;SDS011;576;48.418;10.074;2022-08-19T06:59:00;14.63;;;12.47;;
1174;SDS011;576;48.418;10.074;2022-08-19T07:01:28;14.37;;;12.57;;
1174;SDS011;576;48.418;10.074;2022-08-19T07:03:56;14.60;;;13.30;;
1174;SDS011;576;48.418;10.074;2022-08-19T07:06:25;14.60;;;12.57;;
1174;SDS011;576;48.418;10.074;2022-08-19T07:09:11;14.57;;;13.13;;
1174;SDS011;576;48.418;10.074;2022-08-19T07:11:44;13.00;;;11.90;;
1174;SDS011;576;48.418;10.074;2022-08-19T07:14:14;16.63;;;14.53;;
1174;SDS011;576;48.418;10.074;2022-08-19T07:16:46;14.20;;;12.80;;
1174;SDS011;576;48.418;10.074;2022-08-19T07:19:16;15.87;;;14.50;;
1174;SDS011;576;48.418;10.074;2022-08-19T07:21:48;19.10;;;17.30;;
1174;SDS011;576;48.418;10.074;2022-08-19T07:24:21;15.53;;;14.13;;
1174;SDS011;576;48.418;10.074;2022-08-19T07:26:52;13.20;;;12.10;;
1174;SDS011;576;48.418;10.074;2022-08-19T07:29:23;14.97;;;13.67;;
1174;SDS011;576;48.418;10.074;2022-08-19T07:31:54;14.07;;;12.87;;
1174;SDS011;576;48.418;10.074;2022-08-19T07:34:27;15.33;;;14.00;;
1174;SDS011;576;48.418;10.074;2022-08-19T07:36:56;22.47;;;20.27;;
1174;SDS011;576;48.418;10.074;2022-08-19T07:39:26;13.07;;;11.87;;
1174;SDS011;576;48.418;10.074;2022-08-19T07:41:57;14.17;;;12.80;;
1174;SDS011;576;48.418;10.074;2022-08-19T07:44:27;14.23;;;12.83;;
1174;SDS011;576;48.418;10.074;2022-08-19T07:46:56;18.70;;;17.03;;
1174;SDS011;576;48.418;10.074;2022-08-19T07:49:26;21.73;;;19.60;;
1174;SDS011;576;48.418;10.074;2022-08-19T07:51:56;20.07;;;18.17;;
1174;SDS011;576;48.418;10.074;2022-08-19T07:54:29;14.87;;;13.47;;
1174;SDS011;576;48.418;10.074;2022-08-19T07:57:00;21.33;;;19.27;;
1174;SDS011;576;48.418;10.074;2022-08-19T07:59:29;13.50;;;12.20;;
1174;SDS011;576;48.418;10.074;2022-08-19T08:01:58;12.37;;;10.97;;
1174;SDS011;576;48.418;10.074;2022-08-19T08:04:27;11.87;;;10.87;;
1174;SDS011;576;48.418;10.074;2022-08-19T08:07:13;12.60;;;11.43;;
1174;SDS011;576;48.418;10.074;2022-08-19T08:10:02;12.10;;;11.03;;
1174;SDS011;576;48.418;10.074;2022-08-19T08:12:39;12.67;;;11.40;;
1174;SDS011;576;48.418;10.074;2022-08-19T08:15:23;12.90;;;11.80;;
1174;SDS011;576;48.418;10.074;2022-08-19T08:17:54;11.23;;;10.20;;
1174;SDS011;576;48.418;10.074;2022-08-19T08:20:24;12.50;;;11.50;;
1174;SDS011;576;48.418;10.074;2022-08-19T08:22:52;12.00;;;11.00;;
1174;SDS011;576;48.418;10.074;2022-08-19T08:25:39;12.43;;;11.30;;
1174;SDS011;576;48.418;10.074;2022-08-19T08:28:08;13.40;;;12.40;;
1174;SDS011;576;48.418;10.074;2022-08-19T08:30:43;11.70;;;10.77;;
1174;SDS011;576;48.418;10.074;2022-08-19T08:33:16;11.80;;;10.90;;
1174;SDS011;576;48.418;10.074;2022-08-19T08:36:00;11.50;;;10.30;;
1174;SDS011;576;48.418;10.074;2022-08-19T08:38:29;12.80;;;11.50;;
1174;SDS011;576;48.418;10.074;2022-08-19T08:41:08;12.33;;;11.27;;
1174;SDS011;576;48.418;10.074;2022-08-19T08:44:00;12.10;;;11.00;;
1174;SDS011;576;48.418;10.074;2022-08-19T08:46:34;12.40;;;11.40;;
1174;SDS011;576;48.418;10.074;2022-08-19T08:49:10;11.43;;;10.43;;
1174;SDS011;576;48.418;10.074;2022-08-19T08:51:48;11.13;;;10.13;;
1174;SDS011;576;48.418;10.074;2022-08-19T08:54:26;12.20;;;11.10;;
1174;SDS011;576;48.418;10.074;2022-08-19T08:57:01;11.00;;;10.10;;
1174;SDS011;576;48.418;10.074;2022-08-19T08:59:33;11.27;;;10.23;;
1174;SDS011;576;48.418;10.074;2022-08-19T09:02:04;11.53;;;10.60;;
1174;SDS011;576;48.418;10.074;2022-08-19T09:04:33;11.70;;;10.80;;
1174;SDS011;576;48.418;10.074;2022-08-19T09:07:10;12.17;;;11.07;;
1174;SDS011;576;48.418;10.074;2022-08-19T09:10:03;10.90;;;10.00;;
1174;SDS011;576;48.418;10.074;2022-08-19T09:12:39;12.00;;;10.93;;
1174;SDS011;576;48.418;10.074;2022-08-19T09:15:16;11.37;;;10.50;;
1174;SDS011;576;48.418;10.074;2022-08-19T09:17:59;11.53;;;10.43;;
1174;SDS011;576;48.418;10.074;2022-08-19T09:20:32;11.77;;;10.77;;
1174;SDS011;576;48.418;10.074;2022-08-19T09:23:01;11.40;;;10.50;;
1174;SDS011;576;48.418;10.074;2022-08-19T09:25:30;10.77;;;9.87;;
1174;SDS011;576;48.418;10.074;2022-08-19T09:28:02;11.43;;;10.53;;
1174;SDS011;576;48.418;10.074;2022-08-19T09:30:50;11.20;;;10.20;;
1174;SDS011;576;48.418;10.074;2022-08-19T09:33:19;11.63;;;10.63;;
1174;SDS011;576;48.418;10.074;2022-08-19T09:35:47;11.33;;;10.43;;
1174;SDS011;576;48.418;10.074;2022-08-19T09:38:19;12.50;;;11.47;;
1174;SDS011;576;48.418;10.074;2022-08-19T09:40:48;11.53;;;10.53;;
1174;SDS011;576;48.418;10.074;2022-08-19T09:43:18;12.33;;;11.13;;
1174;SDS011;576;48.418;10.074;2022-08-19T09:45:59;12.07;;;11.07;;
1174;SDS011;576;48.418;10.074;2022-08-19T09:48:28;11.03;;;10.13;;
1174;SDS011;576;48.418;10.074;2022-08-19T09:51:01;10.80;;;9.80;;
1174;SDS011;576;48.418;10.074;2022-08-19T09:53:31;10.43;;;9.53;;
1174;SDS011;576;48.418;10.074;2022-08-19T09:55:59;13.00;;;11.90;;
1174;SDS011;576;48.418;10.074;2022-08-19T09:58:31;12.47;;;11.47;;
1174;SDS011;576;48.418;10.074;2022-08-19T10:01:00;13.63;;;12.33;;
1174;SDS011;576;48.418;10.074;2022-08-19T10:03:29;15.03;;;13.63;;
1174;SDS011;576;48.418;10.074;2022-08-19T10:06:01;14.67;;;13.37;;
1174;SDS011;576;48.418;10.074;2022-08-19T10:09:17;14.43;;;12.97;;
1174;SDS011;576;48.418;10.074;2022-08-19T10:12:00;15.30;;;13.90;;
1174;SDS011;576;48.418;10.074;2022-08-19T10:14:30;15.27;;;13.77;;
1174;SDS011;576;48.418;10.074;2022-08-19T10:16:59;14.47;;;13.00;;
1174;SDS011;576;48.418;10.074;2022-08-19T10:19:42;15.63;;;14.00;;
1174;SDS011;576;48.418;10.074;2022-08-19T10:22:21;14.20;;;13.00;;
1174;SDS011;576;48.418;10.074;2022-08-19T10:24:51;14.20;;;12.87;;
1174;SDS011;576;48.418;10.074;2022-08-19T10:27:20;15.13;;;13.83;;
1174;SDS011;576;48.418;10.074;2022-08-19T10:29:49;14.67;;;13.37;;
1174;SDS011;576;48.418;10.074;2022-08-19T10:32:20;15.10;;;13.80;;
1174;SDS011;576;48.418;10.074;2022-08-19T10:34:59;14.43;;;13.23;;
1174;SDS011;576;48.418;10.074;2022-08-19T10:37:30;23.90;;;21.60;;
1174;SDS011;576;48.418;10.074;2022-08-19T10:40:00;16.67;;;15.07;;
1174;SDS011;576;48.418;10.074;2022-08-19T10:42:29;15.30;;;14.00;;
1174;SDS011;576;48.418;10.074;2022-08-19T10:44:59;14.80;;;13.50;;
1174;SDS011;576;48.418;10.074;2022-08-19T10:47:30;17.93;;;16.07;;
1174;SDS011;576;48.418;10.074;2022-08-19T10:49:58;13.63;;;12.37;;
1174;SDS011;576;48.418;10.074;2022-08-19T10:52:45;14.30;;;12.90;;
1174;SDS011;576;48.418;10.074;2022-08-19T10:55:16;21.23;;;19.13;;
1174;SDS011;576;48.418;10.074;2022-08-19T10:58:03;23.93;;;21.73;;
1174;SDS011;576;48.418;10.074;2022-08-19T11:00:38;23.03;;;20.83;;
1174;SDS011;576;48.418;10.074;2022-08-19T11:03:08;23.57;;;21.20;;
1174;SDS011;576;48.418;10.074;2022-08-19T11:05:36;23.57;;;21.33;;
1174;SDS011;576;48.418;10.074;2022-08-19T11:08:06;24.53;;;22.10;;
1174;SDS011;576;48.418;10.074;2022-08-19T11:10:49;23.00;;;20.90;;
1174;SDS011;576;48.418;10.074;2022-08-19T11:13:24;24.00;;;21.83;;
1174;SDS011;576;48.418;10.074;2022-08-19T11:15:57;17.30;;;15.70;;
1174;SDS011;576;48.418;10.074;2022-08-19T11:18:33;23.87;;;21.57;;
1174;SDS011;576;48.418;10.074;2022-08-19T11:21:06;25.83;;;23.60;;
1174;SDS011;576;48.418;10.074;2022-08-19T11:23:54;25.20;;;22.60;;
1174;SDS011;576;48.418;10.074;2022-08-19T11:26:27;23.53;;;20.93;;
1174;SDS011;576;48.418;10.074;2022-08-19T11:28:56;23.47;;;21.27;;
1174;SDS011;576;48.418;10.074;2022-08-19T11:31:28;23.33;;;21.13;;
1174;SDS011;576;48.418;10.074;2022-08-19T11:33:58;17.57;;;15.97;;
1174;SDS011;576;48.418;10.074;2022-08-19T11:36:30;25.40;;;22.83;;
1174;SDS011;576;48.418;10.074;2022-08-19T11:38:59;23.90;;;21.60;;
1174;SDS011;576;48.418;10.074;2022-08-19T11:41:28;25.60;;;23.00;;
1174;SDS011;576;48.418;10.074;2022-08-19T11:44:06;32.70;;;23.80;;
1174;SDS011;576;48.418;10.074;2022-08-19T11:46:38;24.40;;;21.97;;
1174;SDS011;576;48.418;10.074;2022-08-19T11:49:06;25.60;;;22.53;;
1174;SDS011;576;48.418;10.074;2022-08-19T11:51:39;24.83;;;22.47;;
1174;SDS011;576;48.418;10.074;2022-08-19T11:54:08;27.10;;;24.37;;
1174;SDS011;576;48.418;10.074;2022-08-19T11:56:37;24.17;;;21.87;;
1174;SDS011;576;48.418;10.074;2022-08-19T11:59:06;32.07;;;25.40;;
1174;SDS011;576;48.418;10.074;2022-08-19T12:01:41;27.07;;;24.13;;
1174;SDS011;576;48.418;10.074;2022-08-19T12:04:10;26.90;;;24.20;;
1174;SDS011;576;48.418;10.074;2022-08-19T12:06:39;26.03;;;23.40;;
1174;SDS011;576;48.418;10.074;2022-08-19T12:09:08;27.53;;;24.83;;
1174;SDS011;576;48.418;10.074;2022-08-19T12:11:38;28.87;;;26.00;;
1174;SDS011;576;48.418;10.074;2022-08-19T12:14:08;30.33;;;27.37;;
1174;SDS011;576;48.418;10.074;2022-08-19T12:16:43;27.83;;;25.20;;
1174;SDS011;576;48.418;10.074;2022-08-19T12:19:17;25.60;;;23.20;;
1174;SDS011;576;48.418;10.074;2022-08-19T12:21:48;24.93;;;22.63;;
1174;SDS011;576;48.418;10.074;2022-08-19T12:24:17;22.23;;;20.00;;
1174;SDS011;576;48.418;10.074;2022-08-19T12:26:49;16.17;;;14.47;;
1174;SDS011;576;48.418;10.074;2022-08-19T12:29:19;21.40;;;19.10;;
1174;SDS011;576;48.418;10.074;2022-08-19T12:31:51;23.80;;;21.40;;
1174;SDS011;576;48.418;10.074;2022-08-19T12:34:19;21.67;;;19.47;;
1174;SDS011;576;48.418;10.074;2022-08-19T12:36:47;22.93;;;20.73;;
1174;SDS011;576;48.418;10.074;2022-08-19T12:39:16;23.50;;;21.23;;
1174;SDS011;576;48.418;10.074;2022-08-19T12:41:44;24.03;;;21.53;;
1174;SDS011;576;48.418;10.074;2022-08-19T12:44:20;24.13;;;21.57;;
1174;SDS011;576;48.418;10.074;2022-08-19T12:46:59;22.90;;;20.30;;
1174;SDS011;576;48.418;10.074;2022-08-19T12:49:31;21.57;;;19.30;;
1174;SDS011;576;48.418;10.074;2022-08-19T12:52:20;21.10;;;19.07;;
1174;SDS011;576;48.418;10.074;2022-08-19T12:54:49;17.83;;;15.93;;
1174;SDS011;576;48.418;10.074;2022-08-19T12:57:20;20.40;;;18.40;;
1174;SDS011;576;48.418;10.074;2022-08-19T12:59:56;18.20;;;16.50;;
1174;SDS011;576;48.418;10.074;2022-08-19T13:02:26;18.47;;;16.77;;
1174;SDS011;576;48.418;10.074;2022-08-19T13:04:55;16.73;;;15.17;;
1174;SDS011;576;48.418;10.074;2022-08-19T13:07:23;17.27;;;15.53;;
1174;SDS011;576;48.418;10.074;2022-08-19T13:09:52;20.87;;;18.87;;
1174;SDS011;576;48.418;10.074;2022-08-19T13:12:20;15.30;;;14.00;;
1174;SDS011;576;48.418;10.074;2022-08-19T13:14:51;20.40;;;17.10;;
1174;SDS011;576;48.418;10.074;2022-08-19T13:17:19;16.60;;;15.10;;
1174;SDS011;576;48.418;10.074;2022-08-19T13:19:49;17.63;;;15.93;;
1174;SDS011;576;48.418;10.074;2022-08-19T13:22:17;15.77;;;14.23;;
1174;SDS011;576;48.418;10.074;2022-08-19T13:24:46;15.10;;;13.80;;
1174;SDS011;576;48.418;10.074;2022-08-19T13:27:14;13.87;;;12.67;;
1174;SDS011;576;48.418;10.074;2022-08-19T13:29:42;14.70;;;13.30;;
1174;SDS011;576;48.418;10.074;2022-08-19T13:32:28;13.30;;;12.20;;
1174;SDS011;576;48.418;10.074;2022-08-19T13:35:16;11.67;;;10.67;;
1174;SDS011;576;48.418;10.074;2022-08-19T13:37:47;12.17;;;11.17;;
1174;SDS011;576;48.418;10.074;2022-08-19T13:40:18;10.90;;;10.00;;
1174;SDS011;576;48.418;10.074;2022-08-19T13:42:50;10.77;;;9.80;;
1174;SDS011;576;48.418;10.074;2022-08-19T13:45:20;10.23;;;9.30;;
1174;SDS011;576;48.418;10.074;2022-08-19T13:47:51;10.97;;;9.90;;
1174;SDS011;576;48.418;10.074;2022-08-19T13:50:27;10.20;;;9.30;;
1174;SDS011;576;48.418;10.074;2022-08-19T13:52:58;9.20;;;8.40;;
1174;SDS011;576;48.418;10.074;2022-08-19T13:55:27;8.90;;;8.10;;
1174;SDS011;576;48.418;10.074;2022-08-19T13:57:57;8.40;;;7.70;;
1174;SDS011;576;48.418;10.074;2022-08-19T14:00:28;6.17;;;5.67;;
1174;SDS011;576;48.418;10.074;2022-08-19T14:02:58;9.73;;;8.83;;
1174;SDS011;576;48.418;10.074;2022-08-19T14:05:28;8.20;;;7.40;;
1174;SDS011;576;48.418;10.074;2022-08-19T14:07:57;8.03;;;7.43;;
1174;SDS011;576;48.418;10.074;2022-08-19T14:10:26;8.90;;;7.13;;
1174;SDS011;576;48.418;10.074;2022-08-19T14:12:58;7.90;;;7.07;;
1174;SDS011;576;48.418;10.074;2022-08-19T14:15:28;11.10;;;7.53;;
1174;SDS011;576;48.418;10.074;2022-08-19T14:17:57;7.17;;;6.53;;
1174;SDS011;576;48.418;10.074;2022-08-19T14:20:26;7.47;;;6.87;;
1174;SDS011;576;48.418;10.074;2022-08-19T14:22:55;9.90;;;7.80;;
1174;SDS011;576;48.418;10.074;2022-08-19T14:25:24;8.00;;;7.30;;
1174;SDS011;576;48.418;10.074;2022-08-19T14:27:53;7.10;;;6.40;;
1174;SDS011;576;48.418;10.074;2022-08-19T14:30:23;6.60;;;6.07;;
1174;SDS011;576;48.418;10.074;2022-08-19T14:32:54;7.30;;;6.73;;
1174;SDS011;576;48.418;10.074;2022-08-19T14:35:23;6.50;;;5.90;;
1174;SDS011;576;48.418;10.074;2022-08-19T14:37:54;8.03;;;7.33;;
1174;SDS011;576;48.418;10.074;2022-08-19T14:40:25;7.03;;;6.50;;
1174;SDS011;576;48.418;10.074;2022-08-19T14:42:56;7.27;;;6.77;;
1174;SDS011;576;48.418;10.074;2022-08-19T14:45:30;8.80;;;7.63;;
1174;SDS011;576;48.418;10.074;2022-08-19T14:47:59;8.47;;;7.70;;
1174;SDS011;576;48.418;10.074;2022-08-19T14:50:28;7.83;;;7.13;;
1174;SDS011;576;48.418;10.074;2022-08-19T14:53:01;8.10;;;7.40;;
1174;SDS011;576;48.418;10.074;2022-08-19T14:55:40;9.00;;;8.30;;
1174;SDS011;576;48.418;10.074;2022-08-19T14:58:09;7.43;;;6.83;;
1174;SDS011;576;48.418;10.074;2022-08-19T15:00:56;8.50;;;7.80;;
1174;SDS011;576;48.418;10.074;2022-08-19T15:03:26;8.70;;;7.60;;
1174;SDS011;576;48.418;10.074;2022-08-19T15:05:55;8.90;;;8.10;;
1174;SDS011;576;48.418;10.074;2022-08-19T15:08:26;8.80;;;8.00;;
1174;SDS011;576;48.418;10.074;2022-08-19T15:10:56;9.20;;;8.50;;
1174;SDS011;576;48.418;10.074;2022-08-19T15:13:26;8.73;;;8.07;;
1174;SDS011;576;48.418;10.074;2022-08-19T15:15:55;9.30;;;8.50;;
1174;SDS011;576;48.418;10.074;2022-08-19T15:18:24;9.83;;;8.83;;
1174;SDS011;576;48.418;10.074;2022-08-19T15:20:53;9.33;;;8.60;;